YCAR

Details ICAO YCAR (CVQ)
Name Carnarvon
Region Australia
Timezone Australia/Perth (UTC+8.0)
Plans Departing 5
Arriving 12
Stats Elevation 13 ft / 4 m (AMSL)
Location -24.882726° 113.667939°
Runways 2
Magnetic Variation 0.326° W
Sunrise 2017-12-16 21:32:23 UTC / 2017-12-17 05:32:23 Local
Sunset 2017-12-17 11:12:58 UTC / 2017-12-17 19:12:58 Local
Advertisement - Login to hide

Runways

ID Width Length Bearing (true) Bearing (mag) Surface Threshold Offset Overrun Length
04 98 ft / 30 m 5,385 ft / 1,641 m 43.27° 43.60° Asphalt 0 ft / 0 m 0 ft / 0 m
18 98 ft / 30 m 3,860 ft / 1,177 m 179.23° 179.56° Asphalt 0 ft / 0 m 0 ft / 0 m
22 98 ft / 30 m 5,385 ft / 1,641 m 223.26° 223.59° Asphalt 0 ft / 0 m 266 ft / 81 m
36 98 ft / 30 m 3,860 ft / 1,177 m 359.23° 359.56° Asphalt 161 ft / 49 m 0 ft / 0 m

Map

Weather


0- 5 10 15 20 25 30 35+ Temperature / ° C

Clouds and Precipitation
Forecast for 2017-12-17 06:00 UTC. Updated an hour ago

Ground ~20,000 ft ~40,000 ft Winds

METAR

YCAR 170600Z AUTO 24013KT 9999 // SCT036 SCT041 25/14 Q1010

TAF

Not found

Frequencies

Unicom 126.70 MHz CTAF
Warning: Do not use this data for real-world aviation or navigation. No guarantee of current accuracy is given.